createdAt,value
2023-05-02T01:37:03.616Z,0.00
2023-05-02T01:38:03.524Z,0.00
2023-05-02T01:39:03.448Z,0.00
2023-05-02T01:40:03.396Z,0.00
2023-05-02T01:41:03.294Z,0.00
2023-05-02T01:42:03.200Z,0.00
2023-05-02T01:43:03.122Z,0.00
2023-05-02T01:44:04.454Z,0.00
2023-05-02T01:45:02.964Z,0.00
2023-05-02T01:46:03.128Z,0.00
2023-05-02T01:47:02.872Z,0.00
2023-05-02T01:48:02.746Z,0.00
2023-05-02T01:49:02.637Z,0.00
2023-05-02T01:50:02.658Z,0.00
2023-05-02T01:51:02.479Z,0.00
2023-05-02T01:52:02.394Z,0.00
2023-05-02T01:53:02.336Z,0.00
2023-05-02T01:54:02.262Z,0.00
2023-05-02T01:55:02.192Z,0.00
2023-05-02T01:56:02.082Z,0.00
2023-05-02T01:57:01.988Z,0.00
2023-05-02T01:58:01.911Z,0.00
2023-05-02T01:59:01.826Z,0.00
2023-05-02T02:00:02.135Z,0.00
2023-05-02T02:01:01.743Z,0.00
2023-05-02T02:02:01.586Z,0.00
2023-05-02T02:03:01.541Z,0.00
2023-05-02T02:04:01.492Z,0.00
2023-05-02T02:05:01.345Z,0.00
2023-05-02T02:06:01.275Z,0.00
2023-05-02T02:07:01.174Z,0.00
2023-05-02T02:08:01.441Z,0.00
2023-05-02T02:09:01.093Z,0.00
2023-05-02T02:10:01.181Z,0.00
2023-05-02T02:11:00.851Z,0.00
2023-05-02T02:12:00.769Z,0.00
2023-05-02T02:13:00.685Z,0.00
2023-05-02T02:14:00.605Z,0.00
2023-05-02T02:15:00.524Z,0.00
2023-05-02T02:16:00.436Z,0.00
2023-05-02T02:17:00.447Z,0.00
2023-05-02T02:20:25.906Z,0.00
2023-05-02T02:22:33.371Z,0.00
2023-05-02T02:24:55.757Z,0.00
2023-05-02T02:25:55.660Z,0.00
2023-05-02T02:26:55.577Z,0.00
2023-05-02T02:28:37.981Z,0.00
2023-05-02T02:29:37.909Z,0.00
2023-05-02T02:30:37.833Z,0.00
2023-05-02T02:31:37.726Z,0.00
2023-05-02T02:32:37.794Z,0.00
2023-05-02T02:33:37.616Z,0.00
2023-05-02T02:34:37.484Z,0.00
2023-05-02T02:35:37.402Z,0.00
2023-05-02T02:36:37.318Z,0.00
2023-05-02T02:37:37.234Z,0.00
2023-05-02T02:38:37.157Z,0.00
2023-05-02T02:39:37.072Z,0.00
2023-05-02T02:40:37.012Z,0.00
2023-05-02T02:41:36.909Z,0.00
2023-05-02T02:42:36.838Z,0.00
2023-05-02T02:43:36.754Z,0.00
2023-05-02T02:44:36.666Z,0.00
2023-05-02T02:45:36.678Z,0.00
2023-05-02T02:46:36.561Z,0.00
2023-05-02T02:47:36.446Z,0.00
2023-05-02T02:48:36.349Z,0.00
2023-05-02T02:49:36.260Z,0.00
2023-05-02T02:50:36.168Z,0.00
2023-05-02T02:51:36.094Z,0.00
2023-05-02T02:52:36.008Z,0.00
2023-05-02T02:53:35.972Z,0.00
2023-05-02T02:54:35.842Z,0.00
2023-05-02T02:55:35.766Z,0.00
2023-05-02T02:56:35.699Z,0.00
2023-05-02T02:57:35.600Z,0.00
2023-05-02T02:58:35.510Z,0.00
2023-05-02T02:59:35.431Z,0.00
2023-05-02T03:00:35.352Z,0.00
2023-05-02T03:01:35.307Z,0.00
2023-05-02T03:02:35.277Z,0.00
2023-05-02T03:03:35.126Z,0.00
2023-05-02T03:04:35.019Z,0.00
2023-05-02T03:05:34.946Z,0.00
2023-05-02T03:06:34.884Z,0.00
2023-05-02T03:07:34.781Z,0.00
2023-05-02T03:08:34.690Z,0.00
2023-05-02T03:09:34.613Z,0.00
2023-05-02T03:10:34.531Z,0.00
2023-05-02T03:11:34.445Z,0.00
2023-05-02T03:12:34.492Z,0.00
2023-05-02T03:13:34.283Z,0.00
2023-05-02T03:14:34.296Z,0.00
2023-05-02T03:15:34.145Z,0.00
2023-05-02T03:16:34.222Z,0.00
2023-05-02T03:17:33.977Z,0.00
2023-05-02T03:18:33.876Z,0.00
2023-05-02T03:19:33.788Z,0.00
2023-05-02T03:20:33.706Z,0.00
2023-05-02T03:21:33.628Z,0.00
2023-05-02T03:22:33.539Z,0.00
2023-05-02T03:23:33.460Z,0.00
2023-05-02T03:24:33.377Z,0.00
2023-05-02T03:25:33.297Z,0.00
2023-05-02T03:26:33.216Z,0.00
2023-05-02T03:27:33.126Z,0.00
2023-05-02T03:28:33.073Z,0.00
2023-05-02T03:29:32.978Z,0.00
2023-05-02T03:30:32.899Z,0.00
2023-05-02T03:31:32.863Z,0.00
2023-05-02T03:32:32.736Z,0.00
2023-05-02T03:33:32.894Z,4.00
2023-05-02T03:34:32.553Z,4.00
2023-05-02T03:35:32.478Z,4.00
2023-05-02T03:36:32.388Z,0.00
2023-05-02T03:37:32.309Z,4.00
2023-05-02T03:38:32.224Z,4.00
2023-05-02T03:39:32.189Z,4.00
2023-05-02T03:40:32.057Z,8.00
2023-05-02T03:41:31.981Z,4.00
2023-05-02T03:42:31.898Z,8.00
2023-05-02T03:43:31.866Z,8.00
2023-05-02T03:44:31.816Z,8.00
2023-05-02T03:45:31.645Z,12.00
2023-05-02T03:46:31.585Z,12.00
2023-05-02T03:47:31.556Z,16.00
2023-05-02T03:48:31.399Z,20.00
2023-05-02T03:49:31.618Z,24.00
2023-05-02T03:50:31.234Z,24.00
2023-05-02T03:51:31.150Z,32.00
2023-05-02T03:52:31.472Z,32.00
2023-05-02T03:53:31.185Z,36.00
2023-05-02T03:54:30.906Z,44.00
2023-05-02T03:55:30.820Z,48.00
2023-05-02T03:56:30.743Z,52.00
2023-05-02T03:57:30.702Z,56.00
2023-05-02T03:58:30.576Z,60.00
2023-05-02T03:59:30.505Z,68.00
2023-05-02T04:00:30.537Z,72.00
2023-05-02T04:01:30.331Z,80.00
2023-05-02T04:02:30.564Z,88.00
2023-05-02T04:03:30.302Z,100.00
2023-05-02T04:04:30.147Z,112.00
2023-05-02T04:05:30.007Z,120.00
2023-05-02T04:06:29.939Z,132.00
2023-05-02T04:07:29.839Z,140.00
2023-05-02T04:08:29.750Z,148.00
2023-05-02T04:09:29.667Z,156.00
2023-05-02T04:10:29.586Z,168.00
2023-05-02T04:11:29.502Z,176.00
2023-05-02T04:12:29.419Z,188.00
2023-05-02T04:13:29.361Z,204.00
2023-05-02T04:14:29.256Z,212.00
2023-05-02T04:15:29.173Z,224.00
2023-05-02T04:16:29.174Z,236.00
2023-05-02T04:17:29.164Z,244.00
2023-05-02T04:18:28.923Z,256.00
2023-05-02T04:19:28.845Z,268.00
2023-05-02T04:20:28.759Z,272.00
2023-05-02T04:21:28.674Z,280.00
2023-05-02T04:22:28.595Z,284.00
2023-05-02T04:23:28.511Z,288.00
2023-05-02T04:24:28.430Z,288.00
2023-05-02T04:25:28.357Z,292.00
2023-05-02T04:26:28.264Z,296.00
2023-05-02T04:27:28.286Z,300.00
2023-05-02T04:28:28.100Z,308.00
2023-05-02T04:29:28.022Z,316.00
2023-05-02T04:30:28.236Z,324.00
2023-05-02T04:31:27.922Z,328.00
2023-05-02T04:32:27.822Z,336.00
2023-05-02T04:33:27.686Z,348.00
2023-05-02T04:34:27.600Z,364.00
2023-05-02T04:35:27.526Z,380.00
2023-05-02T04:36:27.442Z,396.00
2023-05-02T04:37:27.355Z,408.00
2023-05-02T04:38:27.278Z,420.00
2023-05-02T04:39:27.388Z,436.00
2023-05-02T04:40:27.105Z,456.00
2023-05-02T04:41:27.075Z,472.00
2023-05-02T04:43:19.432Z,536.00
2023-05-02T04:44:19.494Z,564.00
2023-05-02T04:45:19.258Z,580.00
2023-05-02T04:46:19.220Z,576.00
2023-05-02T04:47:19.096Z,564.00
2023-05-02T04:48:19.036Z,572.00
2023-05-02T04:49:18.935Z,600.00
2023-05-02T04:50:18.855Z,644.00
2023-05-02T04:51:18.768Z,676.00
2023-05-02T04:52:18.695Z,716.00
2023-05-02T04:53:18.603Z,752.00
2023-05-02T04:54:18.530Z,780.00
2023-05-02T04:55:18.456Z,784.00
2023-05-02T04:56:18.365Z,780.00
2023-05-02T04:57:19.567Z,792.00
2023-05-02T04:58:18.196Z,800.00
2023-05-02T04:59:18.114Z,820.00
2023-05-02T05:00:18.040Z,840.00
2023-05-02T05:01:18.021Z,852.00
2023-05-02T05:02:18.034Z,880.00
2023-05-02T05:03:17.929Z,908.00
2023-05-02T05:04:17.801Z,928.00
2023-05-02T05:05:17.688Z,948.00
2023-05-02T05:06:17.569Z,976.00
2023-05-02T05:07:17.467Z,1020.00
2023-05-02T05:08:17.384Z,1068.00
2023-05-02T05:09:17.303Z,1092.00
2023-05-02T05:10:17.224Z,1096.00
2023-05-02T05:11:17.144Z,1060.00
2023-05-02T05:12:17.059Z,1064.00
2023-05-02T05:13:16.978Z,1100.00
2023-05-02T05:14:16.900Z,1132.00
2023-05-02T05:15:16.847Z,1164.00
2023-05-02T05:16:16.755Z,1192.00
2023-05-02T05:17:17.053Z,1244.00
2023-05-02T05:18:16.619Z,1320.00
2023-05-02T05:19:16.490Z,1388.00
2023-05-02T05:20:16.429Z,1452.00
2023-05-02T05:21:16.334Z,1500.00
2023-05-02T05:22:16.253Z,1540.00
2023-05-02T05:23:16.172Z,1544.00
2023-05-02T05:24:16.089Z,1540.00
2023-05-02T05:25:16.209Z,1524.00
2023-05-02T05:26:15.927Z,1496.00
2023-05-02T05:27:15.847Z,1476.00
2023-05-02T05:28:15.784Z,1472.00
2023-05-02T05:29:15.742Z,1492.00
2023-05-02T05:30:15.618Z,1528.00
2023-05-02T05:31:16.824Z,1556.00
2023-05-02T05:32:15.520Z,1536.00
2023-05-02T05:33:15.467Z,1452.00
2023-05-02T05:34:15.297Z,1376.00
2023-05-02T05:35:15.216Z,1344.00
2023-05-02T05:36:15.150Z,1312.00
2023-05-02T05:37:15.096Z,1264.00
2023-05-02T05:38:14.972Z,1176.00
2023-05-02T05:39:14.887Z,1136.00
2023-05-02T05:40:14.809Z,1152.00
2023-05-02T05:41:14.727Z,1164.00
2023-05-02T05:42:14.654Z,1140.00
2023-05-02T05:43:14.569Z,1084.00
2023-05-02T05:44:14.495Z,1024.00
2023-05-02T05:45:14.433Z,976.00
2023-05-02T05:46:14.329Z,928.00
2023-05-02T05:47:14.274Z,900.00
2023-05-02T05:48:14.266Z,880.00
2023-05-02T05:49:14.907Z,856.00
2023-05-02T05:50:14.043Z,828.00
2023-05-02T05:52:29.074Z,824.00
2023-05-02T05:53:26.354Z,860.00
2023-05-02T05:54:26.282Z,896.00
2023-05-02T05:55:26.200Z,956.00
2023-05-02T05:56:26.115Z,1044.00
2023-05-02T05:57:26.237Z,1176.00
2023-05-02T05:58:25.957Z,1332.00
2023-05-02T05:59:25.876Z,1532.00
2023-05-02T06:00:25.797Z,1656.00
2023-05-02T06:01:25.716Z,1720.00
2023-05-02T06:02:25.702Z,1824.00
2023-05-02T06:03:25.642Z,1920.00
2023-05-02T06:04:25.520Z,2008.00
2023-05-02T06:05:25.404Z,1924.00
2023-05-02T06:06:25.364Z,1836.00
2023-05-02T06:07:25.244Z,1864.00
2023-05-02T06:08:25.183Z,2036.00
2023-05-02T06:09:25.088Z,2180.00
2023-05-02T06:10:25.004Z,2196.00
2023-05-02T06:11:25.028Z,2080.00
2023-05-02T06:12:24.849Z,1980.00
2023-05-02T06:13:24.868Z,1876.00
2023-05-02T06:14:24.683Z,1652.00
2023-05-02T06:15:24.625Z,1548.00
2023-05-02T06:16:24.589Z,1600.00
2023-05-02T06:17:24.465Z,1760.00
2023-05-02T06:18:24.367Z,1976.00
2023-05-02T06:19:24.292Z,2136.00
2023-05-02T06:20:24.213Z,2184.00
2023-05-02T06:21:24.137Z,2124.00
2023-05-02T06:22:24.052Z,2152.00
2023-05-02T06:23:23.977Z,2248.00
2023-05-02T06:24:24.089Z,2388.00
2023-05-02T06:25:24.165Z,2528.00
2023-05-02T06:26:23.738Z,2716.00
2023-05-02T06:27:23.655Z,2888.00
2023-05-02T06:28:23.576Z,2976.00
2023-05-02T06:29:23.501Z,2944.00
2023-05-02T06:30:23.423Z,3004.00
2023-05-02T06:31:23.385Z,3284.00
2023-05-02T06:32:23.260Z,3464.00
2023-05-02T06:33:26.216Z,3432.00
2023-05-02T06:34:23.104Z,3352.00
2023-05-02T06:35:23.023Z,3312.00
2023-05-02T06:36:22.943Z,3264.00
2023-05-02T06:37:22.895Z,3100.00
2023-05-02T06:38:22.788Z,3024.00
2023-05-02T06:39:22.711Z,3084.00
2023-05-02T06:40:22.648Z,3216.00
2023-05-02T06:41:22.556Z,3320.00
2023-05-02T06:42:22.468Z,3416.00
2023-05-02T06:43:22.396Z,3576.00
2023-05-02T06:44:22.318Z,3624.00
2023-05-02T06:45:22.236Z,3624.00
2023-05-02T06:46:22.169Z,3596.00
2023-05-02T06:47:22.135Z,3620.00
2023-05-02T06:48:21.997Z,3668.00
2023-05-02T06:49:21.922Z,3792.00
2023-05-02T06:50:21.838Z,4040.00
2023-05-02T06:51:21.762Z,4324.00
2023-05-02T06:52:21.684Z,4504.00
2023-05-02T06:53:21.601Z,4520.00
2023-05-02T06:54:21.525Z,4272.00
2023-05-02T06:55:21.449Z,3904.00
2023-05-02T06:56:21.484Z,3544.00
2023-05-02T06:57:21.290Z,3192.00
2023-05-02T06:58:21.207Z,2916.00
2023-05-02T06:59:21.134Z,2820.00
2023-05-02T07:00:21.072Z,2852.00
2023-05-02T07:01:21.009Z,3004.00
2023-05-02T07:02:20.903Z,3084.00
2023-05-02T07:03:20.822Z,3160.00
2023-05-02T07:04:20.785Z,3200.00
2023-05-02T07:05:21.016Z,3264.00
2023-05-02T07:06:20.620Z,3280.00
2023-05-02T07:07:20.535Z,3224.00
2023-05-02T07:08:20.426Z,3268.00
2023-05-02T07:09:20.350Z,3280.00
2023-05-02T07:10:20.278Z,3288.00
2023-05-02T07:11:20.201Z,3316.00
2023-05-02T07:12:20.150Z,3280.00
2023-05-02T07:13:20.036Z,3336.00
2023-05-02T07:14:19.959Z,3360.00
2023-05-02T07:15:19.885Z,3468.00
2023-05-02T07:16:19.861Z,3660.00
2023-05-02T07:17:19.723Z,3916.00
2023-05-02T07:18:19.658Z,4424.00
2023-05-02T07:19:19.765Z,5000.00
2023-05-02T07:20:19.488Z,5452.00
2023-05-02T07:21:19.422Z,5588.00
2023-05-02T07:22:19.326Z,5348.00
2023-05-02T07:23:19.702Z,5320.00
2023-05-02T07:24:19.175Z,5516.00
2023-05-02T07:25:19.094Z,5792.00
2023-05-02T07:26:19.016Z,5212.00
2023-05-02T07:27:18.937Z,4184.00
2023-05-02T07:28:18.883Z,3736.00
2023-05-02T07:29:18.794Z,4080.00
2023-05-02T07:30:18.697Z,4488.00
2023-05-02T07:31:19.121Z,4420.00
2023-05-02T07:32:18.814Z,4264.00
2023-05-02T07:33:18.519Z,4680.00
2023-05-02T07:34:18.389Z,5488.00
2023-05-02T07:35:18.316Z,6024.00
2023-05-02T07:36:18.237Z,5556.00
2023-05-02T07:37:18.163Z,5188.00
2023-05-02T07:38:18.079Z,4800.00
2023-05-02T07:39:18.004Z,4228.00
2023-05-02T07:40:17.928Z,3704.00
2023-05-02T07:41:17.850Z,3628.00
2023-05-02T07:42:17.777Z,3788.00
2023-05-02T07:43:17.689Z,3752.00
2023-05-02T07:44:17.634Z,3948.00
2023-05-02T07:45:17.571Z,4336.00
2023-05-02T07:46:17.509Z,4660.00
2023-05-02T07:47:17.384Z,4952.00
2023-05-02T07:48:17.415Z,5320.00
2023-05-02T07:49:17.224Z,5736.00
2023-05-02T07:50:17.151Z,5788.00
2023-05-02T07:51:17.072Z,5288.00
2023-05-02T07:52:16.994Z,4964.00
2023-05-02T07:53:16.929Z,5008.00
2023-05-02T07:54:16.849Z,5224.00
2023-05-02T07:55:16.762Z,5052.00
2023-05-02T07:56:16.678Z,5052.00
2023-05-02T07:57:16.605Z,5048.00
2023-05-02T07:58:16.530Z,4976.00
2023-05-02T07:59:16.450Z,5144.00
2023-05-02T08:00:16.525Z,5060.00
2023-05-02T08:01:16.292Z,5428.00
2023-05-02T08:02:16.254Z,5920.00
2023-05-02T08:03:16.319Z,6252.00
2023-05-02T08:04:16.293Z,6764.00
2023-05-02T08:05:16.194Z,6476.00
2023-05-02T08:06:15.950Z,6272.00
2023-05-02T08:07:16.026Z,6844.00
2023-05-02T08:08:15.753Z,7484.00
2023-05-02T08:09:15.674Z,7980.00
2023-05-02T08:10:15.608Z,8704.00
2023-05-02T08:11:15.529Z,8012.00
2023-05-02T08:12:15.442Z,7132.00
2023-05-02T08:13:15.363Z,6160.00
2023-05-02T08:14:15.285Z,5944.00
2023-05-02T08:15:15.208Z,6292.00
2023-05-02T08:16:15.169Z,6504.00
2023-05-02T08:17:15.054Z,6312.00
2023-05-02T08:18:15.096Z,6036.00
2023-05-02T08:19:14.907Z,5952.00
2023-05-02T08:20:14.821Z,6008.00
2023-05-02T08:21:14.745Z,5940.00
2023-05-02T08:22:14.666Z,6412.00
2023-05-02T08:23:14.596Z,6704.00
2023-05-02T08:24:14.511Z,6660.00
2023-05-02T08:25:14.445Z,6724.00
2023-05-02T08:26:14.361Z,6744.00
2023-05-02T08:27:14.286Z,6608.00
2023-05-02T08:28:14.212Z,6436.00
2023-05-02T08:29:14.153Z,6620.00
2023-05-02T08:30:14.061Z,7052.00
2023-05-02T08:31:13.990Z,7164.00
2023-05-02T08:32:14.085Z,7064.00
2023-05-02T08:33:13.866Z,6424.00
2023-05-02T08:34:13.743Z,5576.00
2023-05-02T08:35:13.666Z,4832.00
2023-05-02T08:36:13.594Z,4236.00
2023-05-02T08:37:13.518Z,3920.00
2023-05-02T08:38:13.440Z,3824.00
2023-05-02T08:39:13.361Z,3712.00
2023-05-02T08:40:13.281Z,3560.00
2023-05-02T08:41:13.208Z,3484.00
2023-05-02T08:42:13.180Z,3592.00
2023-05-02T08:43:13.152Z,4084.00
2023-05-02T08:44:12.982Z,4904.00
2023-05-02T08:45:14.113Z,5704.00
2023-05-02T08:46:12.978Z,6020.00
2023-05-02T08:47:12.867Z,5708.00
2023-05-02T08:48:12.742Z,4728.00
2023-05-02T08:49:12.596Z,3840.00
2023-05-02T08:50:12.524Z,3536.00
2023-05-02T08:51:12.445Z,3784.00
2023-05-02T08:52:12.708Z,4264.00
2023-05-02T08:53:12.292Z,4756.00
2023-05-02T08:54:12.201Z,5028.00
2023-05-02T08:55:12.123Z,4944.00
2023-05-02T08:56:12.048Z,4868.00
2023-05-02T08:57:11.973Z,5012.00
2023-05-02T08:58:12.409Z,5464.00
2023-05-02T08:59:11.816Z,5964.00
2023-05-02T09:00:11.747Z,6320.00
2023-05-02T09:01:11.779Z,6504.00
2023-05-02T09:02:11.582Z,6456.00
2023-05-02T09:03:11.592Z,6248.00
2023-05-02T09:04:11.477Z,6064.00
2023-05-02T09:05:11.354Z,5836.00
2023-05-02T09:06:11.327Z,5588.00
2023-05-02T09:07:11.196Z,5436.00
2023-05-02T09:08:11.114Z,5232.00
2023-05-02T09:09:11.047Z,4980.00
2023-05-02T09:10:10.968Z,4632.00
2023-05-02T09:11:10.899Z,4376.00
2023-05-02T09:12:10.814Z,4292.00
2023-05-02T09:13:11.015Z,4112.00
2023-05-02T09:14:10.953Z,4052.00
2023-05-02T09:15:10.598Z,4004.00
2023-05-02T09:16:10.596Z,3972.00
2023-05-02T09:17:10.438Z,4032.00
2023-05-02T09:18:10.360Z,4168.00
2023-05-02T09:19:10.266Z,4380.00
2023-05-02T09:20:10.207Z,4632.00
2023-05-02T09:21:10.108Z,4972.00
2023-05-02T09:22:10.044Z,5312.00
2023-05-02T09:23:09.958Z,5704.00
2023-05-02T09:24:09.881Z,5932.00
2023-05-02T09:25:10.206Z,6164.00
2023-05-02T09:26:09.776Z,6668.00
2023-05-02T09:27:09.649Z,7364.00
2023-05-02T09:28:09.570Z,8188.00
2023-05-02T09:29:09.501Z,8908.00
2023-05-02T09:30:09.418Z,9232.00
2023-05-02T09:31:09.462Z,9408.00
2023-05-02T09:32:09.338Z,9240.00
2023-05-02T09:33:09.240Z,8924.00
2023-05-02T09:34:09.102Z,8700.00
2023-05-02T09:35:09.032Z,8756.00
2023-05-02T09:36:09.025Z,9124.00
2023-05-02T09:37:08.885Z,9476.00
2023-05-02T09:38:09.049Z,9652.00
2023-05-02T09:39:08.729Z,9224.00
2023-05-02T09:40:08.646Z,8740.00
2023-05-02T09:41:08.572Z,8192.00
2023-05-02T10:22:38.648Z,13320.00
2023-05-02T10:23:38.696Z,13072.00
2023-05-02T10:24:38.466Z,12308.00
2023-05-02T10:25:38.395Z,11496.00
2023-05-02T10:26:38.314Z,10752.00
2023-05-02T10:27:38.240Z,10244.00
2023-05-02T10:28:38.161Z,9580.00
2023-05-02T10:29:38.089Z,8116.00
2023-05-02T10:30:38.012Z,6020.00
2023-05-02T10:31:37.956Z,4472.00
2023-05-02T10:32:37.963Z,4068.00
2023-05-02T10:33:37.791Z,4348.00
2023-05-02T10:34:37.708Z,4808.00
2023-05-02T10:35:37.649Z,5280.00
2023-05-02T10:36:37.569Z,5644.00
2023-05-02T10:37:37.482Z,6140.00
2023-05-02T10:38:37.442Z,6588.00
2023-05-02T10:39:37.332Z,6620.00
2023-05-02T10:40:37.251Z,6112.00
2023-05-02T10:41:37.181Z,5468.00
2023-05-02T10:42:37.112Z,5624.00
2023-05-02T10:43:37.028Z,6368.00
2023-05-02T10:44:36.956Z,7956.00
2023-05-02T10:45:36.957Z,9496.00
2023-05-02T10:46:36.831Z,10800.00
2023-05-02T10:47:36.752Z,10912.00
2023-05-02T10:48:36.642Z,11228.00
2023-05-02T10:49:36.571Z,11552.00
2023-05-02T10:50:36.492Z,11836.00
2023-05-02T10:51:36.415Z,12512.00
2023-05-02T10:52:36.339Z,13268.00
2023-05-02T10:53:36.270Z,13692.00
2023-05-02T10:54:36.307Z,13796.00
2023-05-02T10:55:36.114Z,14012.00
2023-05-02T10:56:36.036Z,14156.00
2023-05-02T10:57:35.964Z,15080.00
2023-05-02T10:58:35.890Z,15968.00
2023-05-02T10:59:35.814Z,16704.00
2023-05-02T11:00:35.791Z,17600.00
2023-05-02T11:01:35.658Z,17312.00
2023-05-02T11:02:35.751Z,16736.00
2023-05-02T11:03:35.561Z,16544.00
2023-05-02T11:04:35.435Z,16960.00
2023-05-02T11:05:35.362Z,17536.00
2023-05-02T11:06:35.334Z,17376.00
2023-05-02T11:07:35.209Z,17344.00
2023-05-02T11:08:35.534Z,18208.00
2023-05-02T11:09:35.069Z,19616.00
2023-05-02T11:10:35.009Z,21344.00
2023-05-02T11:11:34.915Z,22496.00
2023-05-02T11:12:34.837Z,21312.00
2023-05-02T11:13:34.773Z,22368.00
2023-05-02T11:14:34.890Z,21792.00
2023-05-02T11:15:34.615Z,20160.00
2023-05-02T11:16:34.593Z,21728.00
2023-05-02T11:17:34.589Z,20608.00
2023-05-02T11:18:34.696Z,22304.00
2023-05-02T11:19:34.326Z,22560.00
2023-05-02T11:20:34.261Z,20352.00
2023-05-02T11:21:34.178Z,21120.00
2023-05-02T11:22:34.107Z,21056.00
2023-05-02T11:23:34.051Z,24320.00
2023-05-02T11:24:33.959Z,25088.00
2023-05-02T11:25:33.884Z,23072.00
2023-05-02T11:26:33.827Z,21664.00
2023-05-02T11:29:11.259Z,23168.00
2023-05-02T11:30:11.202Z,21792.00
2023-05-02T11:31:11.119Z,20544.00
2023-05-02T11:32:11.083Z,21216.00
2023-05-02T11:33:11.003Z,20960.00
2023-05-02T11:34:10.898Z,20608.00
2023-05-02T11:35:10.827Z,17312.00
2023-05-02T11:36:10.753Z,15648.00
2023-05-02T11:37:10.679Z,12464.00
2023-05-02T11:38:10.608Z,10892.00
2023-05-02T11:39:10.532Z,9804.00
2023-05-02T11:40:10.460Z,8916.00
2023-05-02T11:41:10.388Z,8256.00
2023-05-02T11:42:10.338Z,7788.00
2023-05-02T11:43:10.241Z,7372.00
2023-05-02T11:44:10.178Z,6984.00
2023-05-02T11:45:10.098Z,6796.00
2023-05-02T11:46:10.049Z,6692.00
2023-05-02T11:47:09.993Z,6664.00
2023-05-02T11:48:09.944Z,6632.00
2023-05-02T11:49:11.054Z,6576.00
2023-05-02T11:50:09.729Z,6564.00
2023-05-02T11:51:09.663Z,6564.00
2023-05-02T11:52:09.582Z,6616.00
2023-05-02T11:53:09.504Z,6744.00
2023-05-02T11:54:09.435Z,6856.00
2023-05-02T11:56:09.298Z,7268.00
2023-05-02T11:57:09.211Z,7628.00
2023-05-02T11:58:09.157Z,8096.00
2023-05-02T11:59:09.113Z,8356.00
2023-05-02T12:00:08.989Z,8572.00
2023-05-02T12:01:09.576Z,8840.00
2023-05-02T12:02:08.918Z,9156.00
2023-05-02T12:03:08.808Z,9564.00
2023-05-02T12:20:59.706Z,87616.00
2023-05-02T12:24:25.261Z,20640.00
2023-05-02T12:25:25.192Z,16544.00
2023-05-02T12:26:25.164Z,11136.00
2023-05-02T12:27:25.055Z,9796.00
2023-05-02T12:28:24.990Z,9456.00
2023-05-02T12:29:24.916Z,9280.00
2023-05-02T12:30:24.845Z,9176.00
2023-05-02T12:31:24.864Z,9192.00
2023-05-02T12:32:27.705Z,9276.00
2023-05-02T12:33:24.638Z,9500.00
2023-05-02T12:34:24.570Z,9728.00
2023-05-02T12:35:24.500Z,9912.00
2023-05-02T12:36:24.840Z,9892.00
2023-05-02T12:37:24.360Z,10232.00
2023-05-02T12:38:24.335Z,10024.00
2023-05-02T12:39:28.054Z,10000.00
2023-05-02T12:40:24.143Z,9916.00
2023-05-02T12:41:24.072Z,11448.00
2023-05-02T12:42:23.998Z,10768.00
2023-05-02T12:43:23.927Z,11700.00
2023-05-02T12:44:23.851Z,11604.00
2023-05-02T12:45:23.789Z,39680.00
2023-05-02T12:46:23.776Z,81056.00
2023-05-02T12:47:23.747Z,77952.00
2023-05-02T12:48:23.869Z,78944.00
2023-05-02T12:49:23.492Z,79136.00
2023-05-02T12:50:23.419Z,77312.00
2023-05-02T12:51:23.345Z,76512.00
2023-05-02T12:52:23.313Z,76480.00
2023-05-02T12:53:23.208Z,76416.00
2023-05-02T12:54:23.137Z,75776.00
2023-05-02T12:55:23.067Z,75040.00
2023-05-02T12:57:10.493Z,75296.00
2023-05-02T12:58:10.423Z,74336.00
2023-05-02T12:59:10.354Z,73632.00
2023-05-02T13:00:13.359Z,72864.00
2023-05-02T13:01:52.714Z,70624.00
2023-05-02T13:02:52.796Z,69280.00
2023-05-02T13:03:52.646Z,69472.00
2023-05-02T13:04:52.662Z,68928.00
2023-05-02T13:05:53.664Z,68640.00
2023-05-02T13:06:52.462Z,70016.00
2023-05-02T13:07:54.957Z,69696.00
2023-05-02T13:08:52.255Z,68512.00
2023-05-02T13:09:52.186Z,66848.00
2023-05-02T13:10:52.124Z,65472.00
2023-05-02T13:11:52.062Z,64416.00
2023-05-02T13:12:51.999Z,63488.00
2023-05-02T13:13:51.929Z,62464.00
2023-05-02T13:14:51.882Z,62592.00
2023-05-02T13:15:52.018Z,61760.00
2023-05-02T13:16:51.827Z,61280.00
2023-05-02T13:20:22.425Z,58912.00
2023-05-02T13:24:22.483Z,58496.00
2023-05-02T13:25:22.399Z,57952.00
2023-05-02T13:26:22.332Z,58176.00
2023-05-02T13:27:22.273Z,58016.00
2023-05-02T13:28:22.215Z,57824.00
2023-05-02T13:29:22.140Z,58080.00
2023-05-02T13:30:22.081Z,57536.00
2023-05-02T13:31:22.106Z,55808.00
2023-05-02T13:32:22.092Z,55904.00
2023-05-02T13:33:22.054Z,28384.00
2023-05-02T13:34:21.825Z,9348.00
2023-05-02T13:35:21.764Z,9096.00
2023-05-02T13:36:21.710Z,9460.00
2023-05-02T13:37:21.651Z,9516.00
2023-05-02T13:38:21.579Z,8720.00
2023-05-02T13:39:21.512Z,8344.00
2023-05-02T13:43:37.444Z,5104.00
2023-05-02T13:46:29.324Z,6804.00
2023-05-02T13:47:29.303Z,6072.00
2023-05-02T13:48:29.135Z,5824.00
2023-05-02T13:49:29.129Z,5868.00
2023-05-02T13:50:29.029Z,6032.00
2023-05-02T13:52:11.417Z,6836.00
2023-05-02T13:53:11.346Z,7448.00
2023-05-02T13:54:11.275Z,8196.00
2023-05-02T13:55:11.655Z,8576.00
2023-05-02T13:56:11.140Z,8940.00
2023-05-02T13:57:11.076Z,9792.00
2023-05-02T14:02:19.907Z,36800.00
2023-05-02T14:03:19.785Z,59904.00
2023-05-02T14:04:21.507Z,21600.00
2023-05-02T14:05:19.621Z,64256.00
2023-05-02T14:36:58.455Z,2580.00
2023-05-02T14:38:55.816Z,4636.00
2023-05-02T14:39:55.728Z,2868.00
2023-05-02T14:40:55.655Z,2760.00
2023-05-02T14:41:55.595Z,2772.00
2023-05-02T14:42:55.556Z,2816.00
2023-05-02T14:44:57.496Z,3188.00
2023-05-02T14:45:55.282Z,3240.00
2023-05-02T14:46:55.216Z,3060.00
2023-05-02T14:47:55.141Z,2928.00
2023-05-02T14:48:55.063Z,2928.00
2023-05-02T14:49:54.981Z,2936.00
2023-05-02T14:50:55.356Z,2988.00
2023-05-02T14:51:56.322Z,3228.00
2023-05-02T14:52:54.776Z,3604.00
2023-05-02T14:53:54.684Z,4024.00
2023-05-02T14:54:57.229Z,4428.00
2023-05-02T14:55:54.532Z,4584.00
2023-05-02T14:56:54.530Z,4876.00
2023-05-02T14:58:37.518Z,5696.00
2023-05-02T14:59:37.286Z,5620.00
2023-05-02T15:00:36.981Z,5000.00
2023-05-02T15:01:38.464Z,4520.00
2023-05-02T15:02:36.881Z,4240.00
2023-05-02T15:03:49.177Z,3720.00
2023-05-02T15:04:36.689Z,3136.00
2023-05-02T15:05:36.609Z,2724.00
2023-05-02T15:06:37.093Z,2408.00
2023-05-02T15:07:36.454Z,2288.00
2023-05-02T15:08:37.411Z,2360.00
2023-05-02T15:09:36.290Z,2584.00
2023-05-02T15:10:36.247Z,2772.00
2023-05-02T15:11:36.132Z,2988.00
2023-05-02T15:12:36.067Z,3328.00
2023-05-02T15:13:35.979Z,3844.00
2023-05-02T15:14:35.912Z,4432.00
2023-05-02T15:15:35.827Z,5196.00
2023-05-02T15:16:35.770Z,6136.00
2023-05-02T15:17:35.681Z,9428.00
2023-05-02T15:18:35.608Z,26368.00
2023-05-02T15:19:35.535Z,24576.00
2023-05-02T15:20:35.459Z,10312.00
2023-05-02T15:21:35.397Z,9748.00
2023-05-02T15:22:35.307Z,8172.00
2023-05-02T15:23:35.231Z,6760.00
2023-05-02T15:24:35.183Z,5788.00
2023-05-02T15:26:35.005Z,5188.00
2023-05-02T15:27:34.931Z,5016.00
2023-05-02T15:28:34.868Z,4852.00
2023-05-02T15:29:34.786Z,4792.00
2023-05-02T15:30:34.714Z,4988.00
2023-05-02T15:31:34.709Z,5276.00
2023-05-02T15:32:34.635Z,5552.00
2023-05-02T15:33:34.488Z,5780.00
2023-05-02T15:34:34.417Z,6196.00
2023-05-02T15:35:34.336Z,7324.00
2023-05-02T15:36:34.269Z,13392.00
2023-05-02T15:37:34.208Z,7376.00
2023-05-02T15:38:34.117Z,7428.00
2023-05-02T15:39:34.038Z,7460.00
2023-05-02T15:40:33.985Z,7496.00
2023-05-02T15:41:33.891Z,7628.00
2023-05-02T15:42:34.865Z,7664.00
2023-05-02T15:43:33.740Z,7948.00
2023-05-02T15:44:33.666Z,8592.00
2023-05-02T15:45:33.591Z,13612.00
2023-05-02T15:46:33.596Z,17600.00
2023-05-02T15:47:33.472Z,19424.00
2023-05-02T15:48:33.399Z,12884.00
2023-05-02T15:49:33.319Z,18656.00
2023-05-02T15:50:36.853Z,20224.00
2023-05-02T15:51:33.148Z,22624.00
2023-05-02T15:52:33.073Z,22656.00
2023-05-02T15:53:33.011Z,19712.00